createdAt,value
2023-03-23T15:58:21.256Z,101266.72
2023-03-23T16:03:27.051Z,101263.47
2023-03-23T16:08:23.910Z,101271.97
2023-03-23T16:13:22.472Z,101225.31
2023-03-23T16:18:21.319Z,101208.28
2023-03-23T16:23:18.467Z,101249.59
2023-03-23T16:28:21.355Z,101281.78
2023-03-23T16:33:26.724Z,101185.88
2023-03-23T16:38:27.184Z,101243.94
2023-03-23T16:43:34.210Z,101293.25
2023-03-23T16:48:33.949Z,101175.88
2023-03-23T16:53:32.038Z,101260.91
2023-03-23T16:58:29.542Z,101305.53
2023-03-23T17:03:26.828Z,101287.56
2023-03-23T17:08:24.078Z,101232.84
2023-03-23T17:13:21.012Z,101252.41
2023-03-23T17:18:18.847Z,101238.50
2023-03-23T17:23:18.683Z,101273.50
2023-03-23T17:28:17.023Z,101310.94
2023-03-23T17:33:19.002Z,101302.56
2023-03-23T17:38:22.553Z,101223.91
2023-03-23T17:43:22.360Z,101316.59
2023-03-23T17:48:20.863Z,101327.03
2023-03-23T17:53:22.739Z,101240.91
2023-03-23T17:58:20.032Z,101277.97
2023-03-23T18:03:22.107Z,101316.84
2023-03-23T18:08:19.083Z,101342.75
2023-03-23T18:13:16.072Z,101315.34
2023-03-23T18:18:13.430Z,101356.69
2023-03-23T18:23:11.445Z,101303.31
2023-03-23T18:28:08.366Z,101302.31
2023-03-23T18:33:05.685Z,101311.25
2023-03-23T18:38:02.652Z,101381.44
2023-03-23T18:43:00.464Z,101380.38
2023-03-23T18:47:57.375Z,101364.44
2023-03-23T18:53:00.325Z,101393.34
2023-03-23T18:58:00.467Z,101387.47
2023-03-23T19:03:02.489Z,101358.19
2023-03-23T19:08:03.156Z,101285.03
2023-03-23T19:13:01.089Z,101396.31
2023-03-23T19:17:58.759Z,101376.84
2023-03-23T19:22:57.559Z,101329.41
2023-03-23T19:32:56.180Z,101392.16
2023-03-23T19:37:56.031Z,101400.28
2023-03-23T19:42:53.418Z,101403.59
2023-03-23T19:47:55.810Z,101396.84
2023-03-23T19:52:52.877Z,101297.22
2023-03-23T19:57:52.289Z,101321.28
2023-03-23T20:02:49.194Z,101346.84
2023-03-23T20:07:51.398Z,101403.63
2023-03-23T20:12:48.641Z,101408.22
2023-03-23T20:17:47.554Z,101404.19
2023-03-23T20:22:44.648Z,101336.13
2023-03-23T20:27:41.715Z,101375.75
2023-03-23T20:32:40.021Z,101371.56
2023-03-23T20:37:38.842Z,101365.84
2023-03-23T20:42:37.257Z,101396.88
2023-03-23T20:47:34.255Z,101350.22
2023-03-23T20:52:31.214Z,101388.50
2023-03-23T20:57:28.939Z,101378.38
2023-03-23T21:02:31.090Z,101330.13
2023-03-23T21:07:27.864Z,101345.78
2023-03-23T21:12:24.820Z,101382.94
2023-03-23T21:17:22.630Z,101341.41
2023-03-23T21:22:19.647Z,101366.03
2023-03-23T21:27:17.402Z,101329.41
2023-03-23T21:32:14.159Z,101392.03
2023-03-23T21:37:14.423Z,101296.50
2023-03-23T21:42:13.023Z,101333.16
2023-03-23T21:47:12.802Z,101382.75
2023-03-23T21:52:09.663Z,101372.31
2023-03-23T21:57:07.388Z,101375.88
2023-03-23T22:02:04.388Z,101367.97
2023-03-23T22:07:01.584Z,101355.06
2023-03-23T22:11:58.658Z,101307.16
2023-03-23T22:16:56.364Z,101322.38
2023-03-23T22:21:53.270Z,101363.41
2023-03-23T22:26:50.346Z,101362.53
2023-03-23T22:31:47.334Z,101305.56
2023-03-23T22:36:44.972Z,101254.34
2023-03-23T22:41:42.445Z,101299.72
2023-03-23T22:46:39.778Z,101342.63
2023-03-23T22:51:36.691Z,101300.22
2023-03-23T22:56:36.451Z,101360.78
2023-03-23T23:01:34.123Z,101341.28
2023-03-23T23:06:31.059Z,101363.56
2023-03-23T23:11:27.934Z,101356.03
2023-03-23T23:16:26.796Z,101326.06
2023-03-23T23:21:25.975Z,101351.84
2023-03-23T23:26:23.042Z,101339.34
2023-03-23T23:31:25.353Z,101366.16
2023-03-23T23:36:23.162Z,101348.50
2023-03-23T23:41:20.030Z,101350.50
2023-03-23T23:46:17.002Z,101359.03
2023-03-23T23:51:15.821Z,101338.63
2023-03-23T23:56:14.180Z,101282.63
